ADDS METAR Data INFO
IDs: Format: Raw Decoded Include TAF

Data at: 1400 UTC 17 Dec 2017

KJAX 171356Z 00000KT 10SM BKN200 BKN250 14/09 A3030 RMK AO2 SLP261 T01390094 $
KJAX 171256Z 00000KT 10SM FEW050 FEW170 BKN250 10/09 A3028 RMK AO2 SLP254 T01000089 $
KJAX 171156Z 02004KT 10SM FEW050 SCT170 BKN250 09/07 A3026 RMK AO2 SLP247 T00890072 10094 20072 55000 $
KJAX 171056Z COR 00000KT 10SM BKN160 BKN210 08/07 A3024 RMK AO2 SLP241 T00830072 $
KJAX 170956Z 05003KT 10SM BKN250 08/06 A3025 RMK AO2 SLP242 T00830061 $
KJAX 170856Z 00000KT 10SM BKN250 08/06 A3026 RMK AO2 SLP247 T00780061 58011 $
KJAX 170756Z 00000KT 10SM BKN250 08/06 A3028 RMK AO2 SLP252 T00780061 $
KJAX 170656Z 00000KT 10SM BKN250 07/06 A3029 RMK AO2 SLP255 T00720056 $
KJAX 170556Z 00000KT 10SM BKN250 07/06 A3029 RMK AO2 SLP259 T00720056 10111 20067 53001 $
KJAX 170456Z 00000KT 10SM FEW250 07/05 A3029 RMK AO2 SLP256 T00720050 401720072 $
KJAX 170356Z 00000KT 10SM CLR 07/06 A3030 RMK AO2 SLP260 T00720056 $
KJAX 170256Z 00000KT 10SM CLR 08/06 A3029 RMK AO2 SLP258 T00780056 51005 $
KJAX 170156Z 00000KT 10SM CLR 08/05 A3029 RMK AO2 SLP257 T00830050 $
KJAX 170056Z 00000KT 10SM FEW250 09/05 A3028 RMK AO2 SLP255 T00940050 $
KJAX 162356Z 07003KT 10SM FEW250 11/04 A3028 RMK AO2 SLP253 T01060044 10172 20106 51014 $
KJAX 162256Z 08004KT 10SM FEW250 11/04 A3026 RMK AO2 SLP248 T01110044 $
KJAX 162156Z 07007KT 10SM FEW250 13/04 A3025 RMK AO2 SLP244 T01330039 $
KJAX 162056Z 08009KT 10SM FEW250 15/04 A3024 RMK AO2 SLP239 T01500039 56010 $
KJAX 161956Z 07005KT 10SM FEW250 17/02 A3024 RMK AO2 SLP239 T01670017 $
KJAX 161856Z VRB03KT 10SM FEW250 17/00 A3025 RMK AO2 SLP243 T01670000 $
KJAX 161756Z VRB03KT 10SM FEW120 SCT250 16/00 A3027 RMK AO2 SLP249 T01610000 10161 20083 58015 $
KJAX 161656Z 01005KT 10SM FEW110 SCT250 14/M01 A3029 RMK AO2 SLP257 T01441006 $
KJAX 161556Z 07005KT 10SM FEW050 SCT110 BKN250 13/M01 A3031 RMK AO2 SLP265 T01281011 $
KJAX 161456Z 35006KT 10SM FEW060 FEW110 SCT250 12/M01 A3031 RMK AO2 SLP264 T01171006 51019 $
KJAX 161356Z 01006KT 10SM SCT050 SCT110 SCT250 09/01 A3029 RMK AO2 SLP258 T00940006 $
KJAX 161256Z 36006KT 10SM SCT060 SCT110 SCT250 08/01 A3028 RMK AO2 SLP253 T00830011 $
KJAX 161156Z 36007KT 10SM BKN060 BKN110 09/02 A3026 RMK AO2 SLP245 T00940022 10128 20094 53019 $
KJAX 161056Z 35006KT 10SM BKN060 OVC110 10/03 A3023 RMK AO2 SLP238 T01000028 $
KJAX 160956Z 35005KT 10SM BKN065 OVC110 11/03 A3020 RMK AO2 SLP228 T01060033 $
KJAX 160856Z 34007KT 10SM BKN110 11/04 A3020 RMK AO2 SLP227 T01060039 53007 $
KJAX 160756Z 31004KT 10SM SCT250 11/04 A3019 RMK AO2 SLP223 T01060044 $
KJAX 160656Z 33004KT 10SM BKN095 OVC250 12/05 A3018 RMK AO2 SLP221 T01170050 $
KJAX 160556Z 33007KT 10SM BKN090 OVC250 13/05 A3018 RMK AO2 SLP219 T01280050 10161 20128 51012 $
KJAX 160456Z 33005KT 10SM BKN090 OVC250 13/06 A3017 RMK AO2 SLP217 T01330056 402220111 $
KJAX 160356Z 32009KT 10SM BKN100 OVC250 14/04 A3017 RMK AO2 SLP216 T01390044 $
KJAX 160256Z 29006KT 10SM BKN100 BKN250 14/06 A3014 RMK AO2 SLP208 T01390056 50016 $